createdAt,value
2018-08-09T00:00:03.682Z,78.40
2018-08-09T00:02:03.825Z,78.40
2018-08-09T00:04:03.897Z,78.31
2018-08-09T00:05:03.461Z,78.31
2018-08-09T00:06:04.784Z,77.83
2018-08-09T00:07:03.390Z,77.73
2018-08-09T00:09:03.432Z,77.01
2018-08-09T00:10:03.739Z,76.53
2018-08-09T00:11:03.387Z,76.06
2018-08-09T00:12:03.508Z,75.38
2018-08-09T00:13:03.366Z,74.99
2018-08-09T00:14:03.381Z,74.32
2018-08-09T00:15:03.354Z,74.22
2018-08-09T00:16:03.335Z,74.22
2018-08-09T00:20:03.756Z,72.49
2018-08-09T00:21:03.252Z,72.20
2018-08-09T00:22:03.180Z,71.78
2018-08-09T00:23:03.190Z,71.20
2018-08-09T00:24:03.210Z,70.62
2018-08-09T00:25:03.190Z,69.38
2018-08-09T00:26:03.727Z,68.80
2018-08-09T00:27:03.221Z,68.60
2018-08-09T00:28:03.196Z,68.22
2018-08-09T00:30:03.081Z,68.51
2018-08-09T00:31:03.506Z,70.24
2018-08-09T00:32:03.510Z,70.05
2018-08-09T00:33:03.023Z,70.34
2018-08-09T00:34:02.987Z,70.24
2018-08-09T00:35:03.129Z,69.85
2018-08-09T00:36:02.969Z,69.31
2018-08-09T00:37:02.957Z,68.80
2018-08-09T00:38:03.557Z,68.90
2018-08-09T00:39:03.572Z,68.80
2018-08-09T00:40:03.464Z,68.41
2018-08-09T00:41:03.464Z,68.22
2018-08-09T00:42:03.002Z,68.51
2018-08-09T00:43:03.115Z,68.22
2018-08-09T00:44:03.655Z,68.60
2018-08-09T00:45:02.951Z,69.09
2018-08-09T00:47:02.993Z,67.45
2018-08-09T00:48:02.898Z,67.83
2018-08-09T00:49:03.386Z,67.35
2018-08-09T00:50:03.382Z,66.94
2018-08-09T00:51:02.900Z,65.69
2018-08-09T00:53:02.771Z,62.80
2018-08-09T00:54:02.760Z,61.81
2018-08-09T00:55:02.994Z,60.94
2018-08-09T00:56:04.287Z,60.17
2018-08-09T00:57:02.724Z,59.41
2018-08-09T00:58:02.714Z,58.25
2018-08-09T00:59:02.923Z,56.71
2018-08-09T01:00:02.878Z,56.14
2018-08-09T01:01:02.839Z,56.52
2018-08-09T01:02:03.504Z,56.62
2018-08-09T01:03:02.716Z,56.14
2018-08-09T01:04:02.813Z,56.43
2018-08-09T01:05:02.668Z,56.43
2018-08-09T01:06:02.769Z,55.76
2018-08-09T01:07:02.768Z,55.94
2018-08-09T01:08:02.794Z,57.20
2018-08-09T01:09:03.077Z,58.73
2018-08-09T01:10:02.824Z,58.83
2018-08-09T01:11:02.705Z,58.83
2018-08-09T01:12:02.710Z,58.45
2018-08-09T01:13:02.647Z,57.48
2018-08-09T01:14:02.767Z,57.68
2018-08-09T01:15:02.663Z,57.77
2018-08-09T01:17:02.966Z,56.62
2018-08-09T01:18:02.959Z,55.85
2018-08-09T01:19:02.510Z,56.04
2018-08-09T01:20:02.631Z,56.14
2018-08-09T01:21:02.591Z,56.36
2018-08-09T01:22:02.583Z,57.60
2018-08-09T01:23:02.661Z,59.37
2018-08-09T01:24:02.887Z,60.72
2018-08-09T01:25:02.500Z,61.97
2018-08-09T01:26:02.514Z,62.83
2018-08-09T01:27:02.560Z,63.12
2018-08-09T01:28:02.413Z,63.12
2018-08-09T01:29:02.562Z,63.51
2018-08-09T01:30:02.332Z,64.08
2018-08-09T01:31:02.776Z,65.14
2018-08-09T01:32:02.310Z,65.94
2018-08-09T01:33:02.293Z,66.33
2018-08-09T01:34:02.278Z,67.19
2018-08-09T01:35:02.420Z,67.00
2018-08-09T01:36:02.261Z,67.19
2018-08-09T01:37:02.243Z,66.71
2018-08-09T01:38:02.536Z,66.62
2018-08-09T01:39:02.224Z,66.49
2018-08-09T01:40:02.213Z,66.62
2018-08-09T01:41:02.347Z,66.14
2018-08-09T01:42:02.184Z,66.81
2018-08-09T01:43:02.172Z,66.49
2018-08-09T01:44:02.168Z,67.39
2018-08-09T01:46:02.436Z,67.97
2018-08-09T01:47:02.237Z,67.45
2018-08-09T01:48:02.113Z,66.71
2018-08-09T01:49:02.100Z,65.72
2018-08-09T01:50:02.154Z,64.95
2018-08-09T01:51:02.087Z,64.37
2018-08-09T01:52:02.067Z,63.31
2018-08-09T01:53:02.977Z,63.70
2018-08-09T01:54:02.043Z,63.99
2018-08-09T01:57:02.057Z,62.80
2018-08-09T01:58:02.001Z,61.26
2018-08-09T01:59:02.394Z,61.07
2018-08-09T02:00:01.977Z,60.97
2018-08-09T02:01:01.968Z,60.39
2018-08-09T02:02:01.950Z,59.82
2018-08-09T02:03:01.971Z,60.01
2018-08-09T02:04:01.927Z,60.97
2018-08-09T02:05:02.487Z,60.08
2018-08-09T02:06:02.071Z,59.69
2018-08-09T02:08:01.880Z,58.92
2018-08-09T02:09:01.870Z,58.35
2018-08-09T02:10:01.859Z,58.35
2018-08-09T02:11:02.492Z,56.91
2018-08-09T02:12:01.836Z,57.00
2018-08-09T02:13:01.827Z,56.14
2018-08-09T02:14:01.821Z,55.85
2018-08-09T02:15:01.800Z,56.14
2018-08-09T02:16:01.782Z,55.76
2018-08-09T02:17:03.327Z,55.66
2018-08-09T02:18:01.778Z,55.85
2018-08-09T02:19:01.749Z,55.76
2018-08-09T02:20:01.734Z,55.76
2018-08-09T02:21:01.826Z,54.79
2018-08-09T02:22:01.711Z,55.18
2018-08-09T02:23:03.254Z,54.02
2018-08-09T02:24:01.690Z,53.16
2018-08-09T02:25:01.677Z,52.65
2018-08-09T02:27:01.650Z,50.63
2018-08-09T02:30:01.962Z,52.68
2018-08-09T02:31:01.618Z,54.41
2018-08-09T02:32:01.891Z,53.90
2018-08-09T02:33:01.590Z,53.13
2018-08-09T02:34:01.581Z,52.26
2018-08-09T02:35:01.656Z,50.82
2018-08-09T02:38:01.524Z,49.38
2018-08-09T02:39:01.522Z,49.10
2018-08-09T02:41:02.400Z,49.38
2018-08-09T02:42:01.771Z,50.15
2018-08-09T02:43:01.559Z,50.15
2018-08-09T02:44:01.469Z,50.05
2018-08-09T02:45:01.469Z,50.05
2018-08-09T02:46:01.428Z,50.25
2018-08-09T02:48:01.499Z,50.54
2018-08-09T02:49:01.684Z,50.25
2018-08-09T02:51:01.365Z,50.25
2018-08-09T02:52:01.357Z,50.15
2018-08-09T02:53:01.341Z,50.63
2018-08-09T02:54:03.101Z,50.54
2018-08-09T02:55:01.381Z,50.63
2018-08-09T02:57:01.289Z,49.67
2018-08-09T02:58:01.291Z,49.29
2018-08-09T02:59:01.316Z,48.61
2018-08-09T03:00:02.166Z,48.13
2018-08-09T03:01:01.523Z,48.02
2018-08-09T03:02:01.249Z,46.96
2018-08-09T03:03:01.521Z,45.52
2018-08-09T03:04:01.215Z,44.37
2018-08-09T03:06:01.232Z,43.60
2018-08-09T03:07:01.182Z,43.70
2018-08-09T03:08:01.162Z,44.87
2018-08-09T03:09:01.196Z,45.45
2018-08-09T03:10:01.441Z,45.54
2018-08-09T03:12:01.257Z,45.15
2018-08-09T03:13:01.108Z,45.14
2018-08-09T03:14:01.096Z,45.23
2018-08-09T03:15:01.073Z,44.75
2018-08-09T03:16:01.063Z,44.56
2018-08-09T03:17:01.364Z,44.56
2018-08-09T03:19:02.595Z,44.17
2018-08-09T03:20:01.004Z,43.70
2018-08-09T03:21:01.048Z,43.21
2018-08-09T03:22:00.983Z,42.64
2018-08-09T03:23:00.979Z,42.54
2018-08-09T03:24:01.283Z,41.77
2018-08-09T03:25:01.147Z,41.46
2018-08-09T03:26:00.937Z,41.10
2018-08-09T03:27:00.974Z,40.52
2018-08-09T03:28:01.007Z,40.12
2018-08-09T03:29:00.895Z,40.14
2018-08-09T03:30:01.178Z,40.14
2018-08-09T03:31:00.923Z,40.81
2018-08-09T03:32:00.855Z,40.81
2018-08-09T03:33:00.893Z,40.91
2018-08-09T03:35:00.823Z,41.39
2018-08-09T03:38:01.132Z,42.35
2018-08-09T03:39:00.786Z,41.96
2018-08-09T03:40:00.787Z,41.96
2018-08-09T03:42:00.838Z,41.58
2018-08-09T03:44:03.108Z,42.06
2018-08-09T03:45:01.042Z,42.73
2018-08-09T03:46:00.680Z,43.14
2018-08-09T03:47:00.667Z,43.52
2018-08-09T03:48:00.653Z,43.81
2018-08-09T03:49:00.649Z,44.48
2018-08-09T03:50:00.779Z,44.29
2018-08-09T03:51:00.619Z,44.96
2018-08-09T03:52:00.610Z,45.54
2018-08-09T03:53:00.592Z,45.64
2018-08-09T03:54:00.586Z,45.45
2018-08-09T03:55:01.268Z,45.64
2018-08-09T03:56:00.609Z,45.61
2018-08-09T03:57:00.850Z,44.75
2018-08-09T03:58:00.532Z,44.96
2018-08-09T03:59:00.523Z,44.94
2018-08-09T04:00:00.519Z,44.65
2018-08-09T04:02:00.587Z,44.08
2018-08-09T04:03:00.778Z,43.88
2018-08-09T04:04:00.510Z,43.88
2018-08-09T04:05:00.548Z,43.21
2018-08-09T04:06:00.434Z,42.93
2018-08-09T04:07:00.475Z,42.64
2018-08-09T04:08:00.412Z,41.96
2018-08-09T04:09:00.399Z,41.67
2018-08-09T04:10:00.704Z,41.10
2018-08-09T04:11:00.380Z,40.81
2018-08-09T04:12:00.761Z,41.49
2018-08-09T04:13:00.493Z,40.81
2018-08-09T04:15:00.324Z,40.72
2018-08-09T04:16:00.320Z,41.29
2018-08-09T04:18:00.609Z,41.10
2018-08-09T04:19:00.318Z,40.43
2018-08-09T04:21:00.244Z,40.52
2018-08-09T04:22:00.232Z,40.52
2018-08-09T04:25:00.199Z,39.95
2018-08-09T04:26:00.602Z,39.95
2018-08-09T04:27:00.230Z,40.43
2018-08-09T04:28:00.180Z,40.14
2018-08-09T04:29:00.417Z,40.14
2018-08-09T04:30:00.145Z,40.33
2018-08-09T04:31:00.122Z,40.23
2018-08-09T04:32:00.120Z,40.43
2018-08-09T04:33:00.666Z,40.62
2018-08-09T04:36:00.060Z,40.43
2018-08-09T04:37:00.050Z,40.05
2018-08-09T04:38:00.050Z,40.33
2018-08-09T04:39:00.023Z,40.25
2018-08-09T04:40:00.381Z,40.25
2018-08-09T04:41:00.083Z,40.35
2018-08-09T04:42:00.052Z,41.41
2018-08-09T04:42:59.997Z,42.85
2018-08-09T04:43:59.983Z,43.33
2018-08-09T04:45:00.072Z,42.56
2018-08-09T04:47:00.227Z,41.87
2018-08-09T04:48:00.066Z,41.77
2018-08-09T04:49:00.128Z,41.39
2018-08-09T04:49:59.889Z,40.62
2018-08-09T04:50:59.877Z,40.23
2018-08-09T04:52:00.066Z,39.95
2018-08-09T04:52:59.932Z,39.78
2018-08-09T04:54:00.916Z,40.06
2018-08-09T04:55:00.024Z,39.97
2018-08-09T04:56:00.656Z,40.06
2018-08-09T04:57:01.437Z,39.87
2018-08-09T04:58:00.634Z,40.16
2018-08-09T04:59:02.613Z,40.73
2018-08-09T05:00:59.948Z,39.97
2018-08-09T05:02:00.366Z,39.97
2018-08-09T05:02:59.893Z,39.78
2018-08-09T05:04:59.772Z,38.74
2018-08-09T05:06:59.679Z,38.07
2018-08-09T05:07:59.766Z,37.77
2018-08-09T05:09:00.106Z,38.07
2018-08-09T05:09:59.639Z,37.87
2018-08-09T05:10:59.685Z,38.45
2018-08-09T05:11:59.631Z,37.77
2018-08-09T05:12:59.614Z,37.77
2018-08-09T05:13:59.595Z,37.59
2018-08-09T05:15:19.360Z,37.30
2018-08-09T05:19:59.619Z,36.45
2018-08-09T05:20:59.672Z,36.07
2018-08-09T05:21:59.807Z,35.68
2018-08-09T05:22:59.549Z,35.30
2018-08-09T05:23:59.537Z,34.91
2018-08-09T05:24:59.577Z,34.23
2018-08-09T05:25:59.521Z,33.85
2018-08-09T05:26:59.548Z,34.62
2018-08-09T05:27:59.862Z,35.39
2018-08-09T05:29:59.440Z,35.77
2018-08-09T05:30:59.494Z,35.30
2018-08-09T05:31:59.584Z,34.62
2018-08-09T05:32:59.491Z,34.53
2018-08-09T05:33:59.812Z,34.74
2018-08-09T05:34:59.504Z,35.70
2018-08-09T05:35:59.345Z,36.18
2018-08-09T05:36:59.337Z,36.27
2018-08-09T05:37:59.327Z,36.85
2018-08-09T05:38:59.528Z,37.34
2018-08-09T05:39:59.661Z,37.52
2018-08-09T05:41:59.377Z,36.66
2018-08-09T05:42:59.850Z,37.04
2018-08-09T05:43:59.251Z,36.66
2018-08-09T05:44:59.389Z,36.76
2018-08-09T05:45:59.238Z,36.37
2018-08-09T05:47:59.624Z,36.95
2018-08-09T05:49:59.179Z,38.20
2018-08-09T05:52:59.429Z,37.43
2018-08-09T05:54:59.436Z,40.63
2018-08-09T05:55:59.105Z,41.68
2018-08-09T05:56:59.154Z,41.59
2018-08-09T05:57:59.082Z,41.86
2018-08-09T05:59:59.122Z,40.72
2018-08-09T06:00:59.106Z,41.78
2018-08-09T06:02:59.480Z,41.30
2018-08-09T06:03:59.110Z,42.82
2018-08-09T06:04:59.665Z,41.39
2018-08-09T06:05:59.775Z,41.78
2018-08-09T06:06:59.032Z,42.16
2018-08-09T06:08:58.989Z,41.59
2018-08-09T06:09:59.297Z,42.93
2018-08-09T06:10:58.950Z,43.32
2018-08-09T06:11:59.081Z,41.97
2018-08-09T06:12:58.907Z,42.28
2018-08-09T06:13:58.916Z,42.76
2018-08-09T06:14:58.988Z,42.57
2018-08-09T06:15:58.880Z,43.73
2018-08-09T06:17:58.997Z,44.11
2018-08-09T06:18:59.150Z,46.42
2018-08-09T06:19:58.918Z,46.06
2018-08-09T06:21:58.964Z,49.24
2018-08-09T06:22:59.127Z,48.86
2018-08-09T06:23:59.186Z,50.98
2018-08-09T06:24:58.773Z,51.39
2018-08-09T06:26:58.754Z,53.61
2018-08-09T06:27:58.747Z,57.56
2018-08-09T06:28:58.726Z,58.72
2018-08-09T06:30:00.202Z,56.98
2018-08-09T06:30:59.064Z,58.72
2018-08-09T06:31:58.705Z,56.21
2018-08-09T06:32:58.694Z,55.15
2018-08-09T06:33:58.873Z,56.30
2018-08-09T06:34:58.668Z,54.38
2018-08-09T06:35:58.760Z,54.57
2018-08-09T06:36:58.944Z,57.27
2018-08-09T06:37:58.777Z,58.42
2018-08-09T06:40:58.597Z,57.29
2018-08-09T06:41:58.646Z,59.78
2018-08-09T06:42:58.990Z,59.90
2018-08-09T06:43:58.570Z,60.28
2018-08-09T06:44:58.558Z,59.61
2018-08-09T06:45:58.543Z,58.75
2018-08-09T06:46:58.588Z,58.07
2018-08-09T06:47:58.777Z,61.93
2018-08-09T06:48:58.866Z,60.86
2018-08-09T06:50:58.841Z,59.80
2018-08-09T06:51:58.861Z,57.49
2018-08-09T06:53:01.134Z,56.36
2018-08-09T06:54:59.220Z,59.25
2018-08-09T06:56:58.524Z,59.06
2018-08-09T06:57:58.421Z,60.89
2018-08-09T06:58:58.409Z,63.24
2018-08-09T06:59:58.937Z,65.95
2018-08-09T07:01:00.507Z,67.69
2018-08-09T07:01:58.766Z,66.33
2018-08-09T07:02:58.518Z,65.85
2018-08-09T07:04:01.391Z,65.47
2018-08-09T07:04:58.713Z,64.59
2018-08-09T07:05:58.684Z,67.30
2018-08-09T07:06:58.680Z,65.69
2018-08-09T07:07:58.375Z,71.16
2018-08-09T07:08:58.495Z,70.81
2018-08-09T07:09:58.951Z,69.36
2018-08-09T07:10:58.282Z,65.50
2018-08-09T07:11:58.320Z,65.50
2018-08-09T07:12:58.771Z,67.82
2018-08-09T07:13:58.579Z,71.20
2018-08-09T07:14:58.465Z,70.32
2018-08-09T07:15:58.421Z,72.10
2018-08-09T07:16:58.437Z,72.68
2018-08-09T07:17:58.317Z,73.07
2018-08-09T07:20:04.016Z,76.06
2018-08-09T07:21:01.271Z,74.52
2018-08-09T07:23:00.745Z,75.58
2018-08-09T07:23:59.619Z,72.62
2018-08-09T07:24:58.281Z,72.14
2018-08-09T07:25:58.151Z,75.52
2018-08-09T07:26:59.067Z,74.17
2018-08-09T07:27:59.539Z,74.98
2018-08-09T07:28:59.791Z,78.08
2018-08-09T07:29:58.149Z,80.79
2018-08-09T07:30:59.642Z,82.04
2018-08-09T07:32:58.407Z,80.74
2018-08-09T07:35:44.144Z,78.75
2018-08-09T07:36:44.229Z,79.43
2018-08-09T07:37:43.970Z,80.73
2018-08-09T07:38:43.923Z,80.24
2018-08-09T07:39:43.802Z,81.12
2018-08-09T07:40:44.087Z,80.92
2018-08-09T07:41:43.820Z,83.25
2018-08-09T07:42:43.804Z,81.02
2018-08-09T07:43:43.800Z,85.22
2018-08-09T07:44:43.715Z,84.11
2018-08-09T07:45:43.699Z,86.54
2018-08-09T07:46:44.048Z,86.00
2018-08-09T07:47:43.982Z,85.51
2018-08-09T07:48:43.676Z,84.93
2018-08-09T07:49:43.661Z,85.03
2018-08-09T07:50:43.665Z,83.09
2018-08-09T07:52:02.855Z,84.78
2018-08-09T07:52:43.954Z,81.20
2018-08-09T07:53:43.671Z,85.11
2018-08-09T07:54:43.625Z,85.11
2018-08-09T07:55:43.716Z,86.76
2018-08-09T07:56:43.613Z,87.15
2018-08-09T07:57:43.606Z,85.60
2018-08-09T07:58:43.581Z,87.73
2018-08-09T07:59:43.924Z,85.06
2018-08-09T08:01:43.563Z,87.58
2018-08-09T08:02:43.558Z,87.09
2018-08-09T08:03:43.632Z,87.38
2018-08-09T08:04:43.593Z,89.52
2018-08-09T08:05:43.600Z,87.29
2018-08-09T08:06:43.825Z,87.23
2018-08-09T08:07:43.619Z,87.87
2018-08-09T08:08:43.498Z,87.52
2018-08-09T08:10:43.604Z,87.33
2018-08-09T08:11:43.540Z,88.44
2018-08-09T08:12:44.360Z,88.44
2018-08-09T08:13:43.479Z,88.44
2018-08-09T08:14:43.450Z,89.80
2018-08-09T08:15:45.477Z,87.66
2018-08-09T08:17:44.128Z,87.71
2018-08-09T08:19:43.429Z,88.93
2018-08-09T08:20:43.473Z,87.81
2018-08-09T08:21:43.494Z,88.97
2018-08-09T08:22:43.412Z,88.78
2018-08-09T08:23:43.641Z,87.51
2018-08-09T08:24:43.438Z,88.14
2018-08-09T08:25:43.762Z,88.24
2018-08-09T08:26:43.436Z,87.40
2018-08-09T08:27:43.408Z,87.85
2018-08-09T08:28:43.395Z,88.92
2018-08-09T08:30:43.360Z,87.02
2018-08-09T08:31:43.662Z,88.38
2018-08-09T08:32:43.664Z,87.99
2018-08-09T08:33:45.099Z,87.99
2018-08-09T08:34:43.353Z,87.30
2018-08-09T08:35:43.414Z,88.71
2018-08-09T08:36:43.302Z,86.96
2018-08-09T08:37:43.613Z,87.93
2018-08-09T08:38:43.288Z,86.87
2018-08-09T08:42:43.281Z,86.38
2018-08-09T08:43:43.637Z,86.08
2018-08-09T08:44:43.351Z,84.57
2018-08-09T08:45:43.277Z,85.54
2018-08-09T08:46:43.343Z,85.44
2018-08-09T08:48:43.282Z,85.88
2018-08-09T08:49:43.535Z,84.61
2018-08-09T08:50:43.222Z,85.72
2018-08-09T08:51:43.229Z,82.03
2018-08-09T08:52:43.217Z,81.54
2018-08-09T08:53:43.282Z,82.22
2018-08-09T08:54:43.492Z,82.51
2018-08-09T08:55:43.416Z,84.21
2018-08-09T08:56:43.497Z,77.83
2018-08-09T08:57:43.397Z,73.94
2018-08-09T08:58:43.202Z,75.98
2018-08-09T08:59:43.381Z,79.59
2018-08-09T09:00:43.180Z,80.56
2018-08-09T09:01:43.172Z,79.20
2018-08-09T09:02:44.100Z,81.38
2018-08-09T09:03:47.570Z,79.92
2018-08-09T09:04:45.622Z,78.06
2018-08-09T09:06:49.359Z,78.59
2018-08-09T09:08:43.495Z,76.58
2018-08-09T09:09:43.165Z,73.56
2018-08-09T09:10:43.147Z,73.52
2018-08-09T09:11:43.189Z,79.66
2018-08-09T09:12:43.145Z,79.02
2018-08-09T09:13:43.189Z,72.06
2018-08-09T09:14:43.127Z,66.89
2018-08-09T09:16:43.438Z,71.08
2018-08-09T09:17:46.257Z,68.45
2018-08-09T09:18:43.146Z,68.06
2018-08-09T09:19:43.706Z,69.43
2018-08-09T09:20:43.308Z,70.63
2018-08-09T09:22:45.040Z,64.29
2018-08-09T09:23:43.921Z,67.41
2018-08-09T09:24:54.207Z,68.71
2018-08-09T09:26:43.205Z,67.25
2018-08-09T09:28:43.461Z,65.14
2018-08-09T09:29:50.292Z,62.60
2018-08-09T09:30:43.266Z,64.06
2018-08-09T09:32:43.134Z,64.75
2018-08-09T09:33:43.248Z,62.11
2018-08-09T09:34:43.456Z,62.11
2018-08-09T09:35:43.134Z,61.82
2018-08-09T09:36:43.096Z,61.33
2018-08-09T09:37:43.093Z,60.16
2018-08-09T09:38:43.075Z,62.11
2018-08-09T09:40:43.130Z,64.06
2018-08-09T09:41:43.369Z,62.30
2018-08-09T09:42:43.084Z,64.39
2018-08-09T09:43:43.068Z,65.85
2018-08-09T09:44:43.074Z,60.80
2018-08-09T09:46:43.317Z,60.38
2018-08-09T09:47:43.367Z,62.76
2018-08-09T09:48:56.203Z,56.30
2018-08-09T09:49:43.110Z,58.87
2018-08-09T09:50:43.062Z,56.13
2018-08-09T09:51:43.079Z,59.75
2018-08-09T09:52:43.110Z,59.56
2018-08-09T09:53:43.361Z,58.28
2018-08-09T09:55:43.154Z,57.99
2018-08-09T09:56:43.074Z,55.57
2018-08-09T09:57:43.065Z,55.28
2018-08-09T09:58:43.108Z,54.11
2018-08-09T09:59:43.357Z,55.70
2018-08-09T10:01:43.102Z,54.23
2018-08-09T10:02:43.065Z,55.28
2018-08-09T10:03:43.052Z,55.70
2018-08-09T10:04:43.131Z,54.03
2018-08-09T10:05:43.415Z,53.64
2018-08-09T10:06:43.128Z,54.03
2018-08-09T10:08:43.078Z,53.57
2018-08-09T10:09:43.192Z,52.98
2018-08-09T10:10:43.131Z,55.31
2018-08-09T10:11:43.369Z,53.35
2018-08-09T10:12:43.092Z,52.98
2018-08-09T10:13:43.204Z,52.79
2018-08-09T10:15:43.058Z,54.09
2018-08-09T10:16:43.134Z,53.50
2018-08-09T10:17:43.467Z,52.35
2018-08-09T10:18:43.878Z,51.79
2018-08-09T10:19:43.126Z,52.37
2018-08-09T10:20:43.068Z,50.63
2018-08-09T10:21:43.219Z,52.40
2018-08-09T10:22:43.117Z,50.24
2018-08-09T10:23:43.372Z,52.92
2018-08-09T10:24:43.099Z,50.46
2018-08-09T10:25:43.071Z,49.95
2018-08-09T10:26:44.357Z,49.85
2018-08-09T10:27:43.128Z,48.01
2018-08-09T10:28:43.137Z,49.38
2018-08-09T10:29:43.070Z,49.07
2018-08-09T10:30:43.386Z,47.20
2018-08-09T10:31:43.125Z,47.77
2018-08-09T10:32:43.076Z,50.76
2018-08-09T10:33:43.132Z,52.25
2018-08-09T10:34:43.174Z,50.22
2018-08-09T10:36:43.382Z,51.62
2018-08-09T10:37:43.091Z,53.41
2018-08-09T10:38:43.097Z,47.64
2018-08-09T10:40:43.090Z,48.03
2018-08-09T10:41:43.088Z,49.41
2018-08-09T10:42:43.469Z,47.74
2018-08-09T10:43:43.303Z,49.04
2018-08-09T10:44:43.178Z,47.17
2018-08-09T10:45:43.263Z,45.38
2018-08-09T10:46:43.226Z,47.64
2018-08-09T10:47:43.103Z,49.04
2018-08-09T10:48:43.406Z,47.36
2018-08-09T10:49:43.100Z,47.19
2018-08-09T10:51:43.180Z,47.61
2018-08-09T10:52:43.404Z,45.45
2018-08-09T10:53:43.230Z,45.94
2018-08-09T10:54:43.425Z,44.66
2018-08-09T10:55:43.158Z,45.70
2018-08-09T10:56:43.264Z,46.22
2018-08-09T10:57:43.119Z,46.86
2018-08-09T10:58:43.118Z,47.94
2018-08-09T10:59:43.139Z,50.22
2018-08-09T11:00:43.445Z,52.33
2018-08-09T11:01:43.205Z,51.57
2018-08-09T11:02:43.200Z,47.27
2018-08-09T11:03:43.169Z,45.72
2018-08-09T11:04:43.184Z,47.78
2018-08-09T11:05:43.151Z,47.22
2018-08-09T11:06:43.593Z,46.03
2018-08-09T11:09:43.521Z,45.76
2018-08-09T11:11:43.202Z,46.15
2018-08-09T11:13:43.204Z,46.40
2018-08-09T11:14:43.162Z,43.93
2018-08-09T11:15:43.416Z,44.72
2018-08-09T11:16:43.279Z,46.22
2018-08-09T11:17:43.402Z,44.13
2018-08-09T11:18:43.327Z,44.53
2018-08-09T11:19:43.491Z,44.60
2018-08-09T11:20:43.213Z,45.21
2018-08-09T11:21:43.397Z,44.23
2018-08-09T11:22:43.870Z,44.06
2018-08-09T11:23:44.078Z,42.38
2018-08-09T11:24:45.396Z,43.46
2018-08-09T11:25:43.566Z,44.15
2018-08-09T11:27:43.267Z,44.70
2018-08-09T11:28:43.236Z,46.06
2018-08-09T11:29:43.207Z,44.24
2018-08-09T11:31:43.981Z,45.85
2018-08-09T11:32:44.045Z,46.63
2018-08-09T11:33:45.418Z,46.24
2018-08-09T11:34:43.492Z,47.17
2018-08-09T11:36:44.529Z,47.56
2018-08-09T11:37:43.806Z,46.06
2018-08-09T11:38:43.882Z,47.52
2018-08-09T11:39:43.358Z,49.38
2018-08-09T11:40:43.366Z,49.46
2018-08-09T11:41:43.296Z,49.38
2018-08-09T11:42:43.363Z,48.96
2018-08-09T11:43:43.576Z,48.61
2018-08-09T11:44:43.272Z,45.90
2018-08-09T11:45:43.332Z,44.92
2018-08-09T11:46:43.869Z,45.14
2018-08-09T11:47:43.701Z,46.32
2018-08-09T11:48:43.255Z,44.74
2018-08-09T11:49:43.380Z,44.53
2018-08-09T11:50:43.758Z,44.23
2018-08-09T11:51:43.616Z,43.64
2018-08-09T11:52:43.544Z,44.01
2018-08-09T11:53:43.322Z,44.62
2018-08-09T11:54:43.280Z,43.52
2018-08-09T11:55:43.274Z,43.52
2018-08-09T11:56:43.722Z,45.41
2018-08-09T11:57:43.341Z,44.92
2018-08-09T11:58:43.432Z,43.05
2018-08-09T11:59:43.548Z,43.50
2018-08-09T12:00:43.322Z,46.01
2018-08-09T12:01:43.491Z,46.66
2018-08-09T12:02:43.504Z,47.30
2018-08-09T12:03:43.892Z,49.04
2018-08-09T12:04:43.557Z,50.32
2018-08-09T12:05:43.503Z,49.41
2018-08-09T12:06:43.484Z,48.90
2018-08-09T12:07:43.311Z,48.90
2018-08-09T12:08:43.385Z,49.16
2018-08-09T12:09:43.730Z,50.07
2018-08-09T12:10:43.637Z,51.76
2018-08-09T12:11:43.331Z,51.22
2018-08-09T12:12:43.312Z,49.33
2018-08-09T12:13:43.319Z,45.96
2018-08-09T12:14:43.316Z,44.68
2018-08-09T12:15:43.367Z,45.02
2018-08-09T12:17:43.632Z,44.18
2018-08-09T12:18:43.381Z,41.45
2018-08-09T12:19:43.408Z,44.51
2018-08-09T12:20:43.390Z,44.53
2018-08-09T12:21:43.570Z,42.38
2018-08-09T12:22:43.327Z,44.15
2018-08-09T12:24:43.768Z,44.27
2018-08-09T12:25:43.598Z,44.87
2018-08-09T12:26:43.449Z,44.27
2018-08-09T12:27:43.659Z,44.10
2018-08-09T12:28:43.355Z,44.20
2018-08-09T12:29:43.450Z,41.51
2018-08-09T12:30:43.878Z,44.18
2018-08-09T12:31:44.074Z,44.20
2018-08-09T12:32:43.359Z,43.60
2018-08-09T12:33:43.415Z,41.24
2018-08-09T12:34:43.438Z,43.52
2018-08-09T12:35:43.377Z,43.15
2018-08-09T12:36:43.684Z,41.08
2018-08-09T12:37:43.436Z,39.62
2018-08-09T12:38:43.492Z,42.05
2018-08-09T12:39:43.453Z,42.83
2018-08-09T12:41:43.495Z,40.29
2018-08-09T12:42:43.734Z,42.19
2018-08-09T12:43:43.411Z,41.31
2018-08-09T12:44:43.392Z,39.28
2018-08-09T12:45:43.448Z,41.17
2018-08-09T12:46:43.427Z,42.76
2018-08-09T12:47:43.405Z,42.85
2018-08-09T12:49:02.911Z,42.47
2018-08-09T12:49:43.413Z,43.01
2018-08-09T12:50:43.430Z,42.32
2018-08-09T12:51:43.463Z,42.26
2018-08-09T12:52:43.426Z,41.57
2018-08-09T12:53:43.420Z,40.69
2018-08-09T12:54:43.738Z,43.48
2018-08-09T12:55:43.423Z,42.44
2018-08-09T12:56:43.425Z,41.85
2018-08-09T12:57:43.478Z,41.55
2018-08-09T12:58:43.433Z,42.66
2018-08-09T12:59:43.441Z,42.08
2018-08-09T13:00:43.746Z,42.08
2018-08-09T13:01:43.441Z,41.71
2018-08-09T13:02:43.453Z,41.33
2018-08-09T13:03:43.515Z,41.99
2018-08-09T13:04:43.469Z,42.72
2018-08-09T13:05:43.493Z,42.46
2018-08-09T13:06:43.823Z,42.57
2018-08-09T13:07:43.508Z,45.70
2018-08-09T13:08:43.555Z,47.44
2018-08-09T13:09:43.558Z,45.54
2018-08-09T13:10:43.488Z,43.32
2018-08-09T13:11:43.474Z,41.78
2018-08-09T13:12:43.784Z,41.02
2018-08-09T13:13:43.479Z,40.63
2018-08-09T13:14:43.492Z,43.21
2018-08-09T13:15:43.549Z,42.96
2018-08-09T13:16:43.586Z,40.31
2018-08-09T13:17:43.530Z,41.20
2018-08-09T13:18:43.796Z,43.27
2018-08-09T13:19:43.496Z,42.50
2018-08-09T13:20:43.563Z,43.52
2018-08-09T13:21:43.953Z,44.22
2018-08-09T13:22:43.818Z,46.14
2018-08-09T13:23:43.635Z,47.27
2018-08-09T13:24:44.263Z,49.31
2018-08-09T13:25:44.051Z,49.70
2018-08-09T13:26:43.514Z,49.68
2018-08-09T13:27:43.562Z,49.38
2018-08-09T13:28:43.511Z,50.07
2018-08-09T13:29:43.723Z,51.54
2018-08-09T13:30:43.894Z,51.44
2018-08-09T13:31:43.647Z,51.64
2018-08-09T13:32:43.516Z,52.42
2018-08-09T13:33:43.622Z,52.33
2018-08-09T13:34:43.541Z,52.13
2018-08-09T13:35:43.536Z,51.93
2018-08-09T13:36:43.818Z,51.34
2018-08-09T13:37:43.516Z,51.05
2018-08-09T13:38:43.524Z,52.13
2018-08-09T13:39:43.578Z,52.25
2018-08-09T13:40:43.566Z,50.66
2018-08-09T13:43:43.513Z,51.64
2018-08-09T13:44:43.615Z,53.59
2018-08-09T13:45:43.578Z,54.09
2018-08-09T13:46:43.540Z,53.50
2018-08-09T13:48:44.549Z,54.14
2018-08-09T13:49:43.587Z,53.85
2018-08-09T13:51:43.581Z,52.76
2018-08-09T13:52:44.005Z,51.89
2018-08-09T13:53:43.633Z,53.65
2018-08-09T13:54:44.325Z,54.24
2018-08-09T13:55:45.559Z,54.21
2018-08-09T13:56:44.954Z,52.28
2018-08-09T13:57:43.827Z,53.65
2018-08-09T13:58:44.040Z,53.77
2018-08-09T14:00:43.805Z,51.91
2018-08-09T14:02:43.680Z,52.97
2018-08-09T14:03:43.542Z,49.87
2018-08-09T14:04:43.520Z,51.74
2018-08-09T14:05:43.516Z,47.69
2018-08-09T14:06:43.805Z,48.65
2018-08-09T14:07:43.490Z,48.23
2018-08-09T14:08:43.485Z,51.34
2018-08-09T14:09:43.519Z,53.58
2018-08-09T14:11:43.527Z,53.58
2018-08-09T14:12:43.857Z,53.26
2018-08-09T14:13:43.891Z,53.94
2018-08-09T14:14:43.486Z,54.46
2018-08-09T14:15:44.811Z,52.69
2018-08-09T14:16:43.472Z,49.87
2018-08-09T14:18:43.776Z,50.37
2018-08-09T14:19:43.491Z,51.54
2018-08-09T14:20:46.439Z,53.11
2018-08-09T14:21:43.477Z,52.92
2018-08-09T14:22:43.473Z,51.93
2018-08-09T14:23:43.762Z,52.59
2018-08-09T14:24:43.859Z,52.86
2018-08-09T14:26:44.012Z,53.04
2018-08-09T14:28:43.500Z,47.91
2018-08-09T14:29:43.493Z,47.24
2018-08-09T14:30:43.783Z,47.36
2018-08-09T14:31:43.661Z,49.30
2018-08-09T14:32:43.556Z,47.56
2018-08-09T14:35:43.604Z,47.65
2018-08-09T14:36:44.126Z,46.37
2018-08-09T14:37:43.508Z,44.91
2018-08-09T14:39:43.470Z,45.68
2018-08-09T14:40:43.543Z,47.80
2018-08-09T14:41:43.499Z,48.99
2018-08-09T14:42:48.010Z,47.91
2018-08-09T14:44:43.520Z,50.19
2018-08-09T14:45:44.067Z,48.14
2018-08-09T14:46:43.486Z,48.86
2018-08-09T14:47:43.483Z,47.48
2018-08-09T14:49:43.724Z,47.44
2018-08-09T14:50:43.502Z,48.30
2018-08-09T14:52:43.479Z,49.04